sensor_id;sensor_type;location;lat;lon;timestamp;pressure;altitude;pressure_sealevel;temperature;humidity
47260;BME280;32999;52.412;4.890;2023-02-19T00:01:45;101754.56;;;10.99;100.00
47260;BME280;32999;52.412;4.890;2023-02-19T00:06:49;101739.50;;;10.89;100.00
47260;BME280;32999;52.412;4.890;2023-02-19T00:11:52;101776.13;;;11.30;100.00
47260;BME280;32999;52.412;4.890;2023-02-19T00:16:54;101711.59;;;10.76;100.00
47260;BME280;32999;52.412;4.890;2023-02-19T00:21:58;101746.84;;;10.71;100.00
47260;BME280;32999;52.412;4.890;2023-02-19T00:26:59;101750.69;;;10.69;100.00
47260;BME280;32999;52.412;4.890;2023-02-19T00:32:01;101739.81;;;10.70;100.00
47260;BME280;32999;52.412;4.890;2023-02-19T00:37:04;101751.50;;;10.69;100.00
47260;BME280;32999;52.412;4.890;2023-02-19T00:42:06;101744.13;;;10.47;100.00
47260;BME280;32999;52.412;4.890;2023-02-19T00:47:08;101795.16;;;10.94;100.00
47260;BME280;32999;52.412;4.890;2023-02-19T00:52:11;101739.63;;;10.47;100.00
47260;BME280;32999;52.412;4.890;2023-02-19T00:57:12;101788.97;;;10.77;100.00
47260;BME280;32999;52.412;4.890;2023-02-19T01:02:14;101789.47;;;10.81;100.00
47260;BME280;32999;52.412;4.890;2023-02-19T01:07:18;101789.84;;;10.86;100.00
47260;BME280;32999;52.412;4.890;2023-02-19T01:12:20;101743.59;;;10.43;100.00
47260;BME280;32999;52.412;4.890;2023-02-19T01:17:23;101797.16;;;10.92;100.00
47260;BME280;32999;52.412;4.890;2023-02-19T01:22:26;101805.88;;;10.86;100.00
47260;BME280;32999;52.412;4.890;2023-02-19T01:27:28;101816.41;;;10.87;100.00
47260;BME280;32999;52.412;4.890;2023-02-19T01:32:30;101823.59;;;10.95;100.00
47260;BME280;32999;52.412;4.890;2023-02-19T01:37:34;101814.88;;;10.77;100.00
47260;BME280;32999;52.412;4.890;2023-02-19T01:42:36;101819.06;;;10.79;100.00
47260;BME280;32999;52.412;4.890;2023-02-19T01:47:42;101811.28;;;10.52;100.00
47260;BME280;32999;52.412;4.890;2023-02-19T01:52:46;101818.50;;;10.60;100.00
47260;BME280;32999;52.412;4.890;2023-02-19T01:57:51;101808.31;;;10.55;100.00
47260;BME280;32999;52.412;4.890;2023-02-19T02:02:57;101824.38;;;10.63;100.00
47260;BME280;32999;52.412;4.890;2023-02-19T02:08:02;101789.91;;;10.52;100.00
47260;BME280;32999;52.412;4.890;2023-02-19T02:13:21;101810.59;;;10.16;100.00
47260;BME280;32999;52.412;4.890;2023-02-19T02:18:29;101832.00;;;10.50;100.00
47260;BME280;32999;52.412;4.890;2023-02-19T02:23:41;101815.19;;;10.23;100.00
47260;BME280;32999;52.412;4.890;2023-02-19T02:29:12;101855.47;;;10.30;100.00
47260;BME280;32999;52.412;4.890;2023-02-19T02:34:22;101754.72;;;9.54;100.00
47260;BME280;32999;52.412;4.890;2023-02-19T02:39:27;101830.75;;;10.28;100.00
47260;BME280;32999;52.412;4.890;2023-02-19T02:44:33;101831.91;;;10.26;100.00
47260;BME280;32999;52.412;4.890;2023-02-19T02:49:36;101836.56;;;10.23;100.00
47260;BME280;32999;52.412;4.890;2023-02-19T02:54:58;101762.94;;;9.95;100.00
47260;BME280;32999;52.412;4.890;2023-02-19T03:00:03;101844.91;;;10.20;100.00
47260;BME280;32999;52.412;4.890;2023-02-19T03:05:09;101806.13;;;9.90;100.00
47260;BME280;32999;52.412;4.890;2023-02-19T03:10:33;101852.44;;;9.99;100.00
47260;BME280;32999;52.412;4.890;2023-02-19T03:15:45;101846.47;;;9.79;100.00
47260;BME280;32999;52.412;4.890;2023-02-19T03:21:07;101876.41;;;9.91;100.00
47260;BME280;32999;52.412;4.890;2023-02-19T03:26:10;101879.75;;;9.93;100.00
47260;BME280;32999;52.412;4.890;2023-02-19T03:31:16;101892.34;;;10.01;100.00
47260;BME280;32999;52.412;4.890;2023-02-19T03:36:21;101876.28;;;9.75;100.00
47260;BME280;32999;52.412;4.890;2023-02-19T03:41:30;101791.97;;;9.20;100.00
47260;BME280;32999;52.412;4.890;2023-02-19T03:46:38;101885.97;;;9.76;100.00
47260;BME280;32999;52.412;4.890;2023-02-19T03:51:47;101825.59;;;9.31;100.00
47260;BME280;32999;52.412;4.890;2023-02-19T03:56:53;101866.88;;;9.63;100.00
47260;BME280;32999;52.412;4.890;2023-02-19T04:02:02;101916.81;;;9.96;100.00
47260;BME280;32999;52.412;4.890;2023-02-19T04:07:07;101925.03;;;9.77;100.00
47260;BME280;32999;52.412;4.890;2023-02-19T04:12:09;101926.03;;;9.76;100.00
47260;BME280;32999;52.412;4.890;2023-02-19T04:17:16;101922.38;;;9.77;100.00
47260;BME280;32999;52.412;4.890;2023-02-19T04:22:22;101840.22;;;9.27;100.00
47260;BME280;32999;52.412;4.890;2023-02-19T04:27:24;101884.09;;;9.50;100.00
47260;BME280;32999;52.412;4.890;2023-02-19T04:32:26;101984.31;;;9.80;100.00
47260;BME280;32999;52.412;4.890;2023-02-19T04:37:29;101973.16;;;9.85;100.00
47260;BME280;32999;52.412;4.890;2023-02-19T04:42:30;101978.19;;;9.88;100.00
47260;BME280;32999;52.412;4.890;2023-02-19T04:47:33;101902.25;;;9.29;100.00
47260;BME280;32999;52.412;4.890;2023-02-19T04:52:36;101951.41;;;9.44;100.00
47260;BME280;32999;52.412;4.890;2023-02-19T04:57:38;102007.50;;;9.80;100.00
47260;BME280;32999;52.412;4.890;2023-02-19T05:02:40;102007.19;;;9.83;100.00
47260;BME280;32999;52.412;4.890;2023-02-19T05:07:43;101993.91;;;9.73;100.00
47260;BME280;32999;52.412;4.890;2023-02-19T05:12:45;102019.25;;;9.87;100.00
47260;BME280;32999;52.412;4.890;2023-02-19T05:17:47;101979.47;;;9.48;100.00
47260;BME280;32999;52.412;4.890;2023-02-19T05:22:50;102045.16;;;9.77;100.00
47260;BME280;32999;52.412;4.890;2023-02-19T05:27:52;102030.69;;;9.62;100.00
47260;BME280;32999;52.412;4.890;2023-02-19T05:33:15;102035.22;;;9.51;100.00
47260;BME280;32999;52.412;4.890;2023-02-19T05:38:19;101949.69;;;8.90;100.00
47260;BME280;32999;52.412;4.890;2023-02-19T05:43:21;102044.47;;;9.75;100.00
47260;BME280;32999;52.412;4.890;2023-02-19T05:48:23;102056.88;;;9.66;100.00
47260;BME280;32999;52.412;4.890;2023-02-19T05:53:26;102086.59;;;9.63;100.00
47260;BME280;32999;52.412;4.890;2023-02-19T05:58:28;102063.66;;;9.88;100.00
47260;BME280;32999;52.412;4.890;2023-02-19T06:03:30;102068.81;;;9.72;100.00
47260;BME280;32999;52.412;4.890;2023-02-19T06:08:33;102083.25;;;9.79;100.00
47260;BME280;32999;52.412;4.890;2023-02-19T06:13:34;102081.66;;;9.86;100.00
47260;BME280;32999;52.412;4.890;2023-02-19T06:18:36;102092.03;;;9.89;100.00
47260;BME280;32999;52.412;4.890;2023-02-19T06:23:41;101979.19;;;9.06;100.00
47260;BME280;32999;52.412;4.890;2023-02-19T06:28:44;102072.28;;;9.54;100.00
47260;BME280;32999;52.412;4.890;2023-02-19T06:33:46;101982.63;;;9.16;100.00
47260;BME280;32999;52.412;4.890;2023-02-19T06:38:51;102033.16;;;9.45;100.00
47260;BME280;32999;52.412;4.890;2023-02-19T06:43:52;102107.13;;;9.80;100.00
47260;BME280;32999;52.412;4.890;2023-02-19T06:48:54;102102.06;;;9.60;100.00
47260;BME280;32999;52.412;4.890;2023-02-19T06:53:57;102026.09;;;9.27;100.00
47260;BME280;32999;52.412;4.890;2023-02-19T06:59:01;102133.06;;;9.88;100.00
47260;BME280;32999;52.412;4.890;2023-02-19T07:04:03;102145.03;;;9.84;100.00
47260;BME280;32999;52.412;4.890;2023-02-19T07:09:07;102166.59;;;9.73;100.00
47260;BME280;32999;52.412;4.890;2023-02-19T07:14:13;102160.78;;;9.87;100.00
47260;BME280;32999;52.412;4.890;2023-02-19T07:19:15;102139.41;;;9.60;100.00
47260;BME280;32999;52.412;4.890;2023-02-19T07:24:19;102192.81;;;9.87;100.00
47260;BME280;32999;52.412;4.890;2023-02-19T07:29:20;102211.94;;;9.82;100.00
47260;BME280;32999;52.412;4.890;2023-02-19T07:34:22;102200.56;;;9.80;100.00
47260;BME280;32999;52.412;4.890;2023-02-19T07:39:25;102204.78;;;9.83;100.00
47260;BME280;32999;52.412;4.890;2023-02-19T07:44:27;102222.56;;;9.65;100.00
47260;BME280;32999;52.412;4.890;2023-02-19T07:49:29;102227.19;;;9.90;100.00
47260;BME280;32999;52.412;4.890;2023-02-19T07:54:32;102224.53;;;9.90;100.00
47260;BME280;32999;52.412;4.890;2023-02-19T07:59:33;102251.84;;;9.84;100.00
47260;BME280;32999;52.412;4.890;2023-02-19T08:04:35;102114.78;;;9.01;100.00
47260;BME280;32999;52.412;4.890;2023-02-19T08:09:38;102224.44;;;9.82;100.00
47260;BME280;32999;52.412;4.890;2023-02-19T08:14:40;102253.22;;;10.15;100.00
47260;BME280;32999;52.412;4.890;2023-02-19T08:19:41;102138.91;;;9.46;100.00
47260;BME280;32999;52.412;4.890;2023-02-19T08:24:44;102281.75;;;10.25;100.00
47260;BME280;32999;52.412;4.890;2023-02-19T08:29:47;102220.03;;;9.90;100.00
47260;BME280;32999;52.412;4.890;2023-02-19T08:34:49;102245.63;;;10.20;100.00
47260;BME280;32999;52.412;4.890;2023-02-19T08:39:52;102266.53;;;10.52;100.00
47260;BME280;32999;52.412;4.890;2023-02-19T08:44:54;102230.50;;;10.56;100.00
47260;BME280;32999;52.412;4.890;2023-02-19T08:49:55;102246.00;;;10.71;100.00
47260;BME280;32999;52.412;4.890;2023-02-19T08:54:58;102220.41;;;10.50;100.00
47260;BME280;32999;52.412;4.890;2023-02-19T09:00:00;102301.56;;;10.32;100.00
47260;BME280;32999;52.412;4.890;2023-02-19T09:05:02;102271.03;;;9.97;100.00
47260;BME280;32999;52.412;4.890;2023-02-19T09:10:07;102302.03;;;9.80;100.00
47260;BME280;32999;52.412;4.890;2023-02-19T09:15:08;102332.16;;;9.63;100.00
47260;BME280;32999;52.412;4.890;2023-02-19T09:20:10;102345.94;;;9.39;100.00
47260;BME280;32999;52.412;4.890;2023-02-19T09:25:14;102340.06;;;9.07;100.00
47260;BME280;32999;52.412;4.890;2023-02-19T09:30:16;102369.25;;;9.47;100.00
47260;BME280;32999;52.412;4.890;2023-02-19T09:35:17;102358.72;;;9.26;100.00
47260;BME280;32999;52.412;4.890;2023-02-19T09:40:21;102399.16;;;9.60;100.00
47260;BME280;32999;52.412;4.890;2023-02-19T09:45:24;102406.81;;;9.92;100.00
47260;BME280;32999;52.412;4.890;2023-02-19T09:50:32;102294.88;;;9.15;100.00
47260;BME280;32999;52.412;4.890;2023-02-19T09:55:38;102413.84;;;10.03;100.00
47260;BME280;32999;52.412;4.890;2023-02-19T10:00:41;102431.25;;;10.26;100.00
47260;BME280;32999;52.412;4.890;2023-02-19T10:05:43;102435.50;;;10.09;100.00
47260;BME280;32999;52.412;4.890;2023-02-19T10:10:47;102458.28;;;10.04;100.00
47260;BME280;32999;52.412;4.890;2023-02-19T10:15:50;102469.25;;;9.91;100.00
47260;BME280;32999;52.412;4.890;2023-02-19T10:20:53;102513.66;;;9.73;100.00
47260;BME280;32999;52.412;4.890;2023-02-19T10:25:58;102488.66;;;9.74;100.00
47260;BME280;32999;52.412;4.890;2023-02-19T10:31:03;102459.09;;;9.08;100.00
47260;BME280;32999;52.412;4.890;2023-02-19T10:36:09;102485.59;;;8.69;100.00
47260;BME280;32999;52.412;4.890;2023-02-19T10:47:30;102490.06;;;8.59;100.00
47260;BME280;32999;52.412;4.890;2023-02-19T10:52:37;102499.56;;;8.52;100.00
47260;BME280;32999;52.412;4.890;2023-02-19T10:57:41;102503.47;;;8.48;100.00
47260;BME280;32999;52.412;4.890;2023-02-19T11:02:46;102529.25;;;8.47;100.00
47260;BME280;32999;52.412;4.890;2023-02-19T11:08:02;102547.34;;;8.65;100.00
47260;BME280;32999;52.412;4.890;2023-02-19T11:14:03;102502.34;;;8.30;100.00
47260;BME280;32999;52.412;4.890;2023-02-19T11:31:21;102548.13;;;8.35;100.00
47260;BME280;32999;52.412;4.890;2023-02-19T11:36:29;102522.94;;;8.28;100.00
47260;BME280;32999;52.412;4.890;2023-02-19T11:48:09;102552.00;;;8.51;100.00
47260;BME280;32999;52.412;4.890;2023-02-19T11:53:26;102540.59;;;8.40;100.00
47260;BME280;32999;52.412;4.890;2023-02-19T11:58:48;102544.50;;;8.66;100.00
47260;BME280;32999;52.412;4.890;2023-02-19T12:04:07;102528.31;;;8.79;100.00
47260;BME280;32999;52.412;4.890;2023-02-19T12:09:28;102564.94;;;9.17;100.00
47260;BME280;32999;52.412;4.890;2023-02-19T12:15:08;102515.22;;;9.06;100.00
47260;BME280;32999;52.412;4.890;2023-02-19T12:20:26;102479.84;;;9.04;100.00
47260;BME280;32999;52.412;4.890;2023-02-19T12:25:44;102424.75;;;8.74;100.00
47260;BME280;32999;52.412;4.890;2023-02-19T12:36:26;102530.91;;;9.00;100.00
47260;BME280;32999;52.412;4.890;2023-02-19T12:41:42;102480.16;;;8.40;100.00
47260;BME280;32999;52.412;4.890;2023-02-19T12:46:48;102569.63;;;8.94;100.00
47260;BME280;32999;52.412;4.890;2023-02-19T12:51:57;102551.69;;;8.45;100.00
47260;BME280;32999;52.412;4.890;2023-02-19T12:57:03;102607.28;;;9.01;100.00
47260;BME280;32999;52.412;4.890;2023-02-19T13:02:12;102612.53;;;9.12;100.00
47260;BME280;32999;52.412;4.890;2023-02-19T13:07:21;102616.41;;;8.77;100.00
47260;BME280;32999;52.412;4.890;2023-02-19T13:12:28;102610.91;;;8.90;100.00
47260;BME280;32999;52.412;4.890;2023-02-19T13:17:35;102559.31;;;8.17;100.00
47260;BME280;32999;52.412;4.890;2023-02-19T13:22:45;102554.03;;;8.59;100.00
47260;BME280;32999;52.412;4.890;2023-02-19T13:28:19;102627.25;;;9.06;100.00
47260;BME280;32999;52.412;4.890;2023-02-19T13:33:43;102636.66;;;9.41;100.00
47260;BME280;32999;52.412;4.890;2023-02-19T13:38:50;102639.91;;;9.44;100.00
47260;BME280;32999;52.412;4.890;2023-02-19T13:43:58;102653.59;;;9.61;100.00
47260;BME280;32999;52.412;4.890;2023-02-19T13:54:46;102611.44;;;9.54;100.00
47260;BME280;32999;52.412;4.890;2023-02-19T13:59:49;102620.19;;;9.76;100.00
47260;BME280;32999;52.412;4.890;2023-02-19T14:04:53;102647.19;;;9.92;100.00
47260;BME280;32999;52.412;4.890;2023-02-19T14:09:56;102641.00;;;9.92;100.00
47260;BME280;32999;52.412;4.890;2023-02-19T14:20:41;102618.25;;;10.16;100.00
47260;BME280;32999;52.412;4.890;2023-02-19T14:25:59;102603.38;;;10.14;100.00
47260;BME280;32999;52.412;4.890;2023-02-19T14:31:18;102592.81;;;10.12;100.00
47260;BME280;32999;52.412;4.890;2023-02-19T14:36:30;102589.72;;;10.07;100.00
47260;BME280;32999;52.412;4.890;2023-02-19T14:41:37;102592.41;;;10.07;100.00
47260;BME280;32999;52.412;4.890;2023-02-19T14:46:44;102569.75;;;10.02;100.00
47260;BME280;32999;52.412;4.890;2023-02-19T14:51:50;102590.44;;;10.09;100.00
47260;BME280;32999;52.412;4.890;2023-02-19T14:56:56;102590.44;;;10.09;100.00
47260;BME280;32999;52.412;4.890;2023-02-19T15:02:00;102523.91;;;9.58;100.00
47260;BME280;32999;52.412;4.890;2023-02-19T15:07:06;102621.06;;;10.05;100.00
47260;BME280;32999;52.412;4.890;2023-02-19T15:12:15;102613.56;;;9.70;100.00
47260;BME280;32999;52.412;4.890;2023-02-19T15:17:23;102619.31;;;9.66;100.00
47260;BME280;32999;52.412;4.890;2023-02-19T15:22:27;102630.91;;;9.45;100.00
47260;BME280;32999;52.412;4.890;2023-02-19T15:27:32;102606.75;;;9.47;100.00
47260;BME280;32999;52.412;4.890;2023-02-19T15:32:34;102523.75;;;8.60;100.00
47260;BME280;32999;52.412;4.890;2023-02-19T15:37:36;102629.16;;;9.25;100.00
47260;BME280;32999;52.412;4.890;2023-02-19T15:42:43;102541.41;;;8.61;100.00
47260;BME280;32999;52.412;4.890;2023-02-19T15:47:48;102605.88;;;8.76;100.00
47260;BME280;32999;52.412;4.890;2023-02-19T15:52:55;102585.75;;;8.62;100.00
47260;BME280;32999;52.412;4.890;2023-02-19T15:58:05;102615.50;;;8.67;100.00
47260;BME280;32999;52.412;4.890;2023-02-19T16:03:14;102544.75;;;8.22;100.00
47260;BME280;32999;52.412;4.890;2023-02-19T16:08:19;102663.63;;;8.86;100.00
47260;BME280;32999;52.412;4.890;2023-02-19T16:13:25;102630.59;;;8.57;100.00
47260;BME280;32999;52.412;4.890;2023-02-19T16:18:54;102609.03;;;8.39;100.00
47260;BME280;32999;52.412;4.890;2023-02-19T16:24:00;102692.00;;;8.88;100.00
47260;BME280;32999;52.412;4.890;2023-02-19T16:29:16;102618.75;;;8.50;100.00
47260;BME280;32999;52.412;4.890;2023-02-19T16:34:29;102681.19;;;9.10;100.00
47260;BME280;32999;52.412;4.890;2023-02-19T16:39:33;102563.31;;;8.65;100.00
47260;BME280;32999;52.412;4.890;2023-02-19T16:44:36;102600.75;;;8.84;100.00
47260;BME280;32999;52.412;4.890;2023-02-19T16:49:38;102646.91;;;9.05;100.00
47260;BME280;32999;52.412;4.890;2023-02-19T16:54:41;102664.19;;;9.11;100.00
47260;BME280;32999;52.412;4.890;2023-02-19T16:59:45;102668.41;;;8.93;100.00
47260;BME280;32999;52.412;4.890;2023-02-19T17:04:47;102582.97;;;8.32;100.00
47260;BME280;32999;52.412;4.890;2023-02-19T17:09:50;102692.16;;;8.96;100.00
47260;BME280;32999;52.412;4.890;2023-02-19T17:14:53;102669.06;;;9.06;100.00
47260;BME280;32999;52.412;4.890;2023-02-19T17:19:55;102594.00;;;8.38;100.00
47260;BME280;32999;52.412;4.890;2023-02-19T17:24:56;102634.34;;;8.34;100.00
47260;BME280;32999;52.412;4.890;2023-02-19T17:30:00;102669.84;;;8.55;100.00
47260;BME280;32999;52.412;4.890;2023-02-19T17:35:01;102720.38;;;8.57;100.00
47260;BME280;32999;52.412;4.890;2023-02-19T17:40:18;102686.09;;;8.52;100.00
47260;BME280;32999;52.412;4.890;2023-02-19T17:51:10;102626.88;;;8.16;100.00
47260;BME280;32999;52.412;4.890;2023-02-19T17:56:15;102584.00;;;8.19;100.00
47260;BME280;32999;52.412;4.890;2023-02-19T18:01:18;102578.16;;;8.26;100.00
47260;BME280;32999;52.412;4.890;2023-02-19T18:06:21;102666.22;;;8.56;100.00
47260;BME280;32999;52.412;4.890;2023-02-19T18:11:23;102648.53;;;8.55;100.00
47260;BME280;32999;52.412;4.890;2023-02-19T18:16:24;102645.16;;;8.53;100.00
47260;BME280;32999;52.412;4.890;2023-02-19T18:21:28;102606.50;;;8.27;100.00
47260;BME280;32999;52.412;4.890;2023-02-19T18:26:30;102553.19;;;7.85;100.00
47260;BME280;32999;52.412;4.890;2023-02-19T18:31:33;102660.81;;;8.46;100.00
47260;BME280;32999;52.412;4.890;2023-02-19T18:36:37;102684.97;;;8.34;100.00
47260;BME280;32999;52.412;4.890;2023-02-19T18:41:39;102667.28;;;8.22;100.00
47260;BME280;32999;52.412;4.890;2023-02-19T20:36:09;102627.50;;;6.99;100.00
47260;BME280;32999;52.412;4.890;2023-02-19T20:59:48;102503.25;;;6.11;100.00
47260;BME280;32999;52.412;4.890;2023-02-19T21:05:16;102603.22;;;6.81;100.00
47260;BME280;32999;52.412;4.890;2023-02-19T21:10:23;102594.41;;;6.80;100.00
47260;BME280;32999;52.412;4.890;2023-02-19T21:15:46;102583.16;;;6.77;100.00
47260;BME280;32999;52.412;4.890;2023-02-19T21:27:42;102599.09;;;6.77;100.00
